Terminal Aerodrome Forecast
Issued by NWS

Home | Current Version | Previous Version | Text Only | Print | Product List | Glossary On
Versions: 1 2 3 4 5 6 7 8 9 10 11 12 13 14 15 16 17 18
000
FTUS46 KMTR 231100
TAFMRY
TAF
KMRY 231120Z 2312/2412 16003KT P6SM OVC009
     FM231700 28004KT P6SM SKC
     FM232000 28010KT P6SM SKC
     FM240300 22005KT P6SM FEW010
     FM240500 20004KT P6SM OVC008=

USA.gov is the U.S. government's official web portal to all federal, state and local government web resources and services.